Time;durP1;ratioP1;P1;durP2;ratioP2;P2;SDS_P1;SDS_P2;PMS_P1;PMS_P2;Temp;Humidity;BMP_temperature;BMP_pressure;BME280_temperature;BME280_humidity;BME280_pressure;Samples;Min_cycle;Max_cycle;Signal;HPM_P1;HPM_P2
2022/01/06 00:01:38;;;;;;;19.33;3.80;;;;;;;2.34;96.66;101476.69;5055056;28;20028;-61
2022/01/06 00:04:03;;;;;;;22.42;4.28;;;;;;;2.32;96.20;101479.56;5044127;28;20040;-61
2022/01/06 00:06:30;;;;;;;24.80;3.78;;;;;;;2.32;96.16;101479.56;5044082;28;20025;-60
2022/01/06 00:08:56;;;;;;;24.92;4.18;;;;;;;2.30;96.38;101478.88;5044118;28;20091;-61
2022/01/06 00:11:23;;;;;;;23.95;5.32;;;;;;;2.31;96.26;101494.13;5043445;28;20024;-60
2022/01/06 00:13:59;;;;;;;25.17;5.43;;;;;;;2.27;96.00;101492.75;5045704;28;20079;-61
2022/01/06 00:16:33;;;;;;;18.75;3.97;;;;;;;2.23;96.29;101495.94;5047378;28;20033;-60
2022/01/06 00:24:13;;;;;;;19.80;3.33;;;;;;;2.12;96.68;101493.50;5047999;28;20105;-61
2022/01/06 00:26:38;;;;;;;24.90;4.00;;;;;;;2.12;96.57;101501.63;5042815;28;20489;-60
2022/01/06 00:29:03;;;;;;;23.75;4.70;;;;;;;2.06;96.76;101505.81;5044290;28;20031;-61
2022/01/06 00:31:29;;;;;;;20.23;3.88;;;;;;;2.02;96.68;101502.56;5048012;28;20028;-60
2022/01/06 00:33:54;;;;;;;20.67;3.75;;;;;;;1.98;96.59;101503.06;5043157;28;20376;-60
2022/01/06 00:36:19;;;;;;;25.38;3.78;;;;;;;1.96;97.15;101510.50;5043149;28;20057;-61
2022/01/06 00:38:45;;;;;;;20.42;3.88;;;;;;;1.92;96.94;101520.78;5043800;28;20033;-61
2022/01/06 00:41:10;;;;;;;17.88;3.47;;;;;;;1.88;96.91;101518.56;5043111;28;20048;-61
2022/01/06 00:43:35;;;;;;;19.92;3.90;;;;;;;1.86;97.32;101518.72;5044015;28;20090;-61
2022/01/06 00:46:00;;;;;;;26.27;5.47;;;;;;;1.83;97.46;101520.91;5042572;28;20037;-61
2022/01/06 00:48:26;;;;;;;24.20;5.00;;;;;;;1.83;97.04;101515.50;5043522;28;20029;-61
2022/01/06 00:50:51;;;;;;;23.92;5.22;;;;;;;1.84;97.92;101523.44;5042683;28;20691;-61
2022/01/06 00:53:16;;;;;;;27.63;3.90;;;;;;;1.85;97.57;101525.16;5048511;28;20036;-60
2022/01/06 00:55:42;;;;;;;20.27;5.55;;;;;;;1.92;97.80;101520.78;5042787;28;20033;-60
2022/01/06 00:58:08;;;;;;;21.73;4.53;;;;;;;1.95;98.04;101525.06;5042932;28;20032;-61
2022/01/06 01:00:38;;;;;;;23.00;4.53;;;;;;;1.99;97.94;101521.88;5048974;28;20063;-60
2022/01/06 01:03:06;;;;;;;26.75;4.22;;;;;;;2.03;97.35;101522.41;5045577;28;20039;-61
2022/01/06 01:05:32;;;;;;;28.00;4.43;;;;;;;2.02;97.46;101520.69;5045917;28;20024;-62
2022/01/06 01:07:57;;;;;;;19.20;4.28;;;;;;;2.01;97.35;101530.69;5037224;28;20379;-61
2022/01/06 01:10:22;;;;;;;24.15;5.45;;;;;;;2.01;97.22;101519.84;5050009;28;20033;-60
2022/01/06 01:12:48;;;;;;;21.58;4.78;;;;;;;1.99;97.01;101526.44;5043454;28;20547;-60
2022/01/06 01:15:19;;;;;;;26.85;4.80;;;;;;;1.97;97.13;101521.16;5044326;28;20051;-60
2022/01/06 01:17:47;;;;;;;25.73;4.57;;;;;;;1.96;96.80;101524.03;5043959;28;20029;-61
2022/01/06 01:20:13;;;;;;;22.95;3.88;;;;;;;1.94;96.63;101515.22;5043643;28;20489;-61
2022/01/06 01:22:39;;;;;;;19.70;4.78;;;;;;;1.92;96.91;101526.19;5043592;28;20055;-61
2022/01/06 01:25:04;;;;;;;22.70;4.05;;;;;;;1.88;96.76;101524.00;5045818;28;20380;-61
2022/01/06 01:27:35;;;;;;;22.73;4.07;;;;;;;1.88;97.13;101535.69;5047720;28;20032;-60
2022/01/06 01:30:03;;;;;;;21.98;4.72;;;;;;;1.81;96.93;101524.59;5043261;28;20033;-61
2022/01/06 01:32:35;;;;;;;23.33;5.00;;;;;;;1.78;96.97;101524.94;5044663;28;20116;-60
2022/01/06 01:35:02;;;;;;;24.52;4.32;;;;;;;1.75;96.96;101540.63;5045026;28;20047;-60
2022/01/06 01:37:28;;;;;;;25.05;4.68;;;;;;;1.72;97.40;101540.94;5044688;28;20053;-61
2022/01/06 01:39:54;;;;;;;22.95;4.85;;;;;;;1.71;97.33;101547.38;5046641;28;20046;-60
2022/01/06 01:42:19;;;;;;;23.67;4.72;;;;;;;1.65;97.14;101548.00;5046362;28;20490;-60
2022/01/06 01:44:47;;;;;;;23.80;4.43;;;;;;;1.61;97.34;101555.56;5049717;28;20017;-60
2022/01/06 01:47:15;;;;;;;24.98;4.78;;;;;;;1.61;97.68;101554.72;5046513;28;20036;-61
2022/01/06 01:49:50;;;;;;;29.60;5.57;;;;;;;1.55;97.89;101561.59;5046989;28;20032;-61
2022/01/06 01:52:16;;;;;;;24.67;5.25;;;;;;;1.51;97.43;101565.63;5045871;28;20174;-61
2022/01/06 01:54:41;;;;;;;21.70;4.68;;;;;;;1.46;97.63;101573.34;5046954;28;20128;-61
2022/01/06 01:57:07;;;;;;;21.08;4.57;;;;;;;1.46;98.19;101584.19;5050302;28;20059;-61
2022/01/06 01:59:32;;;;;;;19.98;4.72;;;;;;;1.44;98.34;101587.03;5046590;28;20056;-61
2022/01/06 02:01:57;;;;;;;23.08;4.68;;;;;;;1.41;98.42;101589.19;5052056;28;20399;-60
2022/01/06 02:04:22;;;;;;;21.70;5.10;;;;;;;1.38;98.35;101593.06;5052458;28;20035;-61
2022/01/06 02:06:48;;;;;;;20.92;4.88;;;;;;;1.36;98.25;101596.91;5045513;28;20086;-61
2022/01/06 02:09:13;;;;;;;15.68;4.28;;;;;;;1.28;98.08;101590.44;5047817;28;20387;-60
2022/01/06 02:11:38;;;;;;;18.23;4.43;;;;;;;1.27;98.30;101596.84;5045423;28;20029;-60
2022/01/06 02:14:06;;;;;;;21.48;5.30;;;;;;;1.25;98.77;101593.44;5046151;28;20028;-61
2022/01/06 02:16:31;;;;;;;21.90;5.07;;;;;;;1.21;98.42;101600.13;5047872;28;20102;-63
2022/01/06 02:18:56;;;;;;;20.83;4.70;;;;;;;1.22;98.34;101607.28;5051381;28;20025;-61
2022/01/06 02:21:22;;;;;;;18.02;5.45;;;;;;;1.19;98.65;101602.16;5046375;28;20064;-60
2022/01/06 02:23:47;;;;;;;20.40;4.32;;;;;;;1.17;98.67;101593.34;5046214;28;20029;-60
2022/01/06 02:26:13;;;;;;;23.83;5.15;;;;;;;1.18;98.50;101602.31;5046845;28;20029;-60
2022/01/06 02:28:42;;;;;;;25.70;5.10;;;;;;;1.14;98.62;101609.03;5046508;28;20102;-61
2022/01/06 02:31:08;;;;;;;23.55;4.75;;;;;;;1.10;98.36;101599.50;5052838;28;20548;-61
2022/01/06 02:33:34;;;;;;;25.40;5.82;;;;;;;1.06;98.50;101600.78;5046046;28;20025;-61
2022/01/06 02:35:59;;;;;;;17.80;4.43;;;;;;;1.03;99.04;101608.22;5046594;28;20589;-60
2022/01/06 02:38:25;;;;;;;19.35;4.22;;;;;;;1.02;98.82;101611.09;5044507;28;20047;-61
2022/01/06 02:40:50;;;;;;;21.92;5.45;;;;;;;1.02;99.08;101620.06;5050155;28;20554;-61
2022/01/06 02:43:18;;;;;;;20.73;5.05;;;;;;;1.00;99.03;101619.31;5045281;28;20476;-61
2022/01/06 02:45:45;;;;;;;21.00;4.53;;;;;;;0.97;99.17;101611.53;5049301;28;20024;-60
2022/01/06 02:48:10;;;;;;;17.42;4.97;;;;;;;0.94;99.07;101611.81;5044874;28;20041;-61
2022/01/06 02:50:44;;;;;;;21.08;4.40;;;;;;;0.92;99.12;101610.28;5047052;28;20037;-61
2022/01/06 02:53:11;;;;;;;23.73;5.22;;;;;;;0.88;99.40;101600.75;5046362;28;20033;-60
2022/01/06 02:55:47;;;;;;;21.13;5.05;;;;;;;0.87;99.22;101604.47;5046727;28;20071;-61
2022/01/06 02:58:12;;;;;;;25.88;6.40;;;;;;;0.84;99.44;101599.34;5049739;28;20384;-61
2022/01/06 03:00:37;;;;;;;24.70;4.65;;;;;;;0.83;99.73;101598.50;5045765;28;20059;-61
2022/01/06 03:03:03;;;;;;;34.45;5.25;;;;;;;0.80;99.46;101598.78;5036758;28;20460;-61
2022/01/06 03:05:28;;;;;;;20.48;4.22;;;;;;;0.78;99.74;101600.78;5044232;28;20069;-61
2022/01/06 03:07:53;;;;;;;24.33;4.97;;;;;;;0.76;99.48;101603.66;5052983;28;20044;-60
2022/01/06 03:10:18;;;;;;;25.98;5.38;;;;;;;0.77;99.60;101610.75;5046350;28;20033;-60
2022/01/06 03:12:46;;;;;;;20.40;5.35;;;;;;;0.74;99.95;101605.63;5046146;28;20102;-60
2022/01/06 03:15:17;;;;;;;23.02;4.95;;;;;;;0.75;99.77;101611.91;5044952;28;20438;-61
2022/01/06 03:17:45;;;;;;;20.20;4.25;;;;;;;0.72;99.89;101623.03;5041012;28;20091;-61
2022/01/06 03:20:13;;;;;;;18.63;4.60;;;;;;;0.68;99.65;101625.16;5039581;28;20024;-61
2022/01/06 03:22:38;;;;;;;19.75;4.63;;;;;;;0.67;99.65;101628.03;5044937;28;20391;-61
2022/01/06 03:25:05;;;;;;;20.85;4.97;;;;;;;0.64;99.64;101631.00;5044841;28;20052;-61
2022/01/06 03:27:31;;;;;;;17.90;4.43;;;;;;;0.65;99.69;101635.41;5034881;28;20507;-60
2022/01/06 03:29:56;;;;;;;22.20;5.25;;;;;;;0.63;99.53;101635.56;5033286;28;20033;-61
2022/01/06 03:32:21;;;;;;;23.20;5.10;;;;;;;0.64;100.00;101633.72;5045555;28;20469;-60
2022/01/06 03:34:47;;;;;;;24.95;4.43;;;;;;;0.67;100.00;101642.38;5046229;28;20057;-60
2022/01/06 03:37:13;;;;;;;20.40;4.38;;;;;;;0.74;100.00;101634.53;5043161;28;20040;-61
2022/01/06 03:39:40;;;;;;;25.08;5.45;;;;;;;0.81;100.00;101634.78;5052828;28;20666;-61
2022/01/06 03:42:06;;;;;;;25.38;5.35;;;;;;;0.85;100.00;101631.63;5047267;28;20033;-61
2022/01/06 03:44:31;;;;;;;19.90;4.20;;;;;;;0.87;100.00;101632.34;5045112;28;20032;-62
2022/01/06 03:46:57;;;;;;;23.25;5.43;;;;;;;0.89;100.00;101630.34;5035100;28;20147;-60
2022/01/06 03:49:22;;;;;;;25.42;4.50;;;;;;;0.90;100.00;101632.03;5044093;28;20033;-60
2022/01/06 03:51:48;;;;;;;22.95;4.72;;;;;;;0.92;99.71;101640.03;5043936;28;20028;-60
2022/01/06 03:54:14;;;;;;;21.52;5.05;;;;;;;0.93;100.00;101639.88;5046361;28;20475;-60
2022/01/06 03:56:39;;;;;;;21.92;4.63;;;;;;;0.95;99.75;101631.59;5044227;28;20045;-61
2022/01/06 03:59:05;;;;;;;22.33;4.20;;;;;;;0.95;99.44;101629.75;5044880;28;20498;-61
2022/01/06 04:01:31;;;;;;;19.65;4.53;;;;;;;0.95;99.45;101634.31;5044844;28;20071;-60
2022/01/06 04:03:56;;;;;;;18.08;4.28;;;;;;;0.92;99.65;101629.22;5050529;28;20039;-60
2022/01/06 04:06:21;;;;;;;20.17;4.45;;;;;;;0.89;99.42;101624.94;5043617;28;20744;-60
2022/01/06 04:08:47;;;;;;;21.50;4.15;;;;;;;0.87;98.94;101639.63;5045194;28;20017;-61
2022/01/06 04:11:12;;;;;;;19.42;3.83;;;;;;;0.86;98.95;101632.47;5042442;28;20123;-60
2022/01/06 04:13:37;;;;;;;20.42;4.03;;;;;;;0.85;99.07;101631.63;5044963;28;20780;-61
2022/01/06 04:16:07;;;;;;;18.30;3.75;;;;;;;0.85;99.04;101639.75;5044371;28;20033;-62
2022/01/06 04:18:32;;;;;;;17.30;3.70;;;;;;;0.82;99.08;101634.66;5048010;28;20033;-61
2022/01/06 04:20:57;;;;;;;18.70;3.17;;;;;;;0.85;99.45;101639.75;5042214;28;20036;-60
2022/01/06 04:23:23;;;;;;;19.80;3.78;;;;;;;0.87;99.09;101647.72;5044246;28;20020;-61
2022/01/06 04:25:48;;;;;;;17.77;4.50;;;;;;;0.89;99.11;101653.84;5044312;28;20033;-60
2022/01/06 04:28:13;;;;;;;18.92;3.50;;;;;;;0.90;99.25;101656.38;5043523;28;20445;-60
2022/01/06 04:30:39;;;;;;;24.45;4.13;;;;;;;0.92;99.00;101659.81;5044160;28;20079;-61
2022/01/06 04:33:04;;;;;;;20.90;3.40;;;;;;;0.90;99.08;101658.22;5043910;28;20025;-61
2022/01/06 04:35:29;;;;;;;17.85;3.70;;;;;;;0.87;98.53;101656.69;5042197;28;20576;-60
2022/01/06 04:37:54;;;;;;;22.88;3.90;;;;;;;0.86;98.65;101659.53;5044092;28;20041;-60
2022/01/06 04:40:20;;;;;;;18.15;3.85;;;;;;;0.81;98.66;101654.56;5046152;28;20040;-60
2022/01/06 04:42:45;;;;;;;22.48;3.92;;;;;;;0.77;98.67;101661.28;5043377;28;20067;-60
2022/01/06 04:45:10;;;;;;;17.63;4.18;;;;;;;0.74;98.61;101666.97;5043505;28;20043;-60
2022/01/06 04:47:36;;;;;;;11.18;3.05;;;;;;;0.67;98.84;101658.59;5042610;28;20029;-60
2022/01/06 04:50:01;;;;;;;18.85;3.75;;;;;;;0.64;98.80;101669.69;5040011;28;20041;-64
2022/01/06 04:52:26;;;;;;;18.33;3.63;;;;;;;0.60;98.65;101670.13;5043650;28;20493;-60
2022/01/06 04:54:51;;;;;;;19.73;4.53;;;;;;;0.58;98.84;101672.13;5034975;28;20037;-61
2022/01/06 04:57:17;;;;;;;19.17;4.80;;;;;;;0.54;99.26;101674.28;5049534;28;20589;-60
2022/01/06 04:59:43;;;;;;;22.90;3.92;;;;;;;0.54;99.10;101678.81;5042252;28;20765;-60
2022/01/06 05:02:08;;;;;;;19.15;4.35;;;;;;;0.50;98.72;101678.25;5043036;28;20048;-61
2022/01/06 05:04:33;;;;;;;15.20;3.75;;;;;;;0.49;98.90;101688.22;5042290;28;20111;-61
2022/01/06 05:06:58;;;;;;;17.55;3.47;;;;;;;0.45;98.83;101692.19;5042871;28;20062;-60
2022/01/06 05:09:24;;;;;;;20.55;5.13;;;;;;;0.37;98.93;101689.38;5042342;28;20048;-61
2022/01/06 05:11:49;;;;;;;16.08;4.10;;;;;;;0.34;98.91;101695.06;5042468;28;20082;-60
2022/01/06 05:14:15;;;;;;;23.30;3.60;;;;;;;0.28;98.91;101701.03;5048607;28;20063;-61
2022/01/06 05:16:40;;;;;;;19.52;3.72;;;;;;;0.25;98.97;101706.72;5045689;28;20119;-61
2022/01/06 05:19:05;;;;;;;17.75;4.72;;;;;;;0.21;98.63;101706.16;5043300;28;20029;-61
2022/01/06 05:21:32;;;;;;;16.20;4.25;;;;;;;0.17;98.80;101712.00;5042306;28;20380;-60
2022/01/06 05:23:57;;;;;;;24.23;4.38;;;;;;;0.15;99.03;101704.03;5044519;28;20036;-60
2022/01/06 05:26:23;;;;;;;15.95;4.53;;;;;;;0.11;99.23;101707.16;5042483;28;20025;-60
2022/01/06 05:28:49;;;;;;;19.73;4.03;;;;;;;0.09;99.19;101715.38;5044046;28;20078;-60
2022/01/06 05:31:14;;;;;;;21.15;4.80;;;;;;;0.08;99.41;101710.13;5042019;28;20037;-60
2022/01/06 05:33:39;;;;;;;21.10;3.80;;;;;;;0.05;99.55;101715.81;5022674;28;20025;-61
2022/01/06 05:36:05;;;;;;;23.35;4.57;;;;;;;0.01;99.37;101719.81;5042095;28;20029;-61
2022/01/06 05:38:31;;;;;;;16.98;3.90;;;;;;;-0.02;99.04;101724.47;5038664;28;20123;-60
2022/01/06 05:40:56;;;;;;;22.10;3.63;;;;;;;-0.04;99.27;101729.19;5043456;28;20044;-60
2022/01/06 05:43:22;;;;;;;25.13;5.00;;;;;;;-0.05;99.34;101726.59;5042066;28;20128;-60
2022/01/06 05:45:48;;;;;;;20.98;4.50;;;;;;;-0.07;99.48;101736.69;5047701;28;20058;-61
2022/01/06 05:48:14;;;;;;;18.25;4.43;;;;;;;-0.09;99.68;101736.00;5048039;28;20021;-60
2022/01/06 05:50:39;;;;;;;22.40;4.38;;;;;;;-0.14;99.64;101731.00;5042058;28;20424;-60
2022/01/06 05:53:04;;;;;;;18.52;4.43;;;;;;;-0.17;99.51;101736.69;5047482;28;20055;-60
2022/01/06 05:55:29;;;;;;;22.33;4.30;;;;;;;-0.21;99.41;101737.94;5046307;28;20029;-60
2022/01/06 05:57:55;;;;;;;19.52;4.60;;;;;;;-0.21;99.61;101743.34;5043306;28;20029;-60
2022/01/06 06:00:20;;;;;;;13.65;4.07;;;;;;;-0.25;99.59;101739.22;5044349;28;20037;-60
2022/01/06 06:02:45;;;;;;;22.25;4.78;;;;;;;-0.23;99.68;101747.19;5045125;28;20136;-60
2022/01/06 06:05:11;;;;;;;18.58;4.10;;;;;;;-0.22;99.84;101744.34;5041115;28;20029;-60
2022/01/06 06:07:36;;;;;;;18.55;4.18;;;;;;;-0.23;99.85;101749.88;5042959;28;20083;-60
2022/01/06 06:10:01;;;;;;;17.90;4.32;;;;;;;-0.23;99.91;101755.28;5042369;28;20039;-65
2022/01/06 06:12:26;;;;;;;15.68;4.93;;;;;;;-0.25;99.71;101755.44;5042003;28;20021;-60
2022/01/06 06:14:52;;;;;;;20.02;5.15;;;;;;;-0.26;99.69;101759.09;5044319;28;20112;-60
2022/01/06 06:17:17;;;;;;;13.57;4.40;;;;;;;-0.27;100.00;101762.78;5026899;28;20636;-60
2022/01/06 06:19:42;;;;;;;19.60;4.40;;;;;;;-0.26;99.90;101761.78;5034430;28;20020;-63
2022/01/06 06:22:10;;;;;;;23.88;5.00;;;;;;;-0.29;99.94;101778.28;5042062;28;20036;-61
2022/01/06 06:24:36;;;;;;;18.50;5.82;;;;;;;-0.33;100.00;101775.00;5047249;28;20536;-60
2022/01/06 06:27:03;;;;;;;18.52;4.47;;;;;;;-0.36;99.65;101777.09;5035149;28;20025;-61
2022/01/06 06:29:28;;;;;;;18.90;4.20;;;;;;;-0.36;99.91;101777.09;5047222;28;20029;-60
2022/01/06 06:31:54;;;;;;;16.42;4.07;;;;;;;-0.38;100.00;101776.41;5054746;28;20373;-60
2022/01/06 06:34:19;;;;;;;16.17;4.22;;;;;;;-0.41;99.83;101784.75;5048174;28;20033;-60
2022/01/06 06:36:44;;;;;;;19.63;5.18;;;;;;;-0.40;100.00;101784.66;5045210;28;20052;-60
2022/01/06 06:39:10;;;;;;;17.38;4.25;;;;;;;-0.42;100.00;101785.75;5049937;28;20120;-61
2022/01/06 06:41:35;;;;;;;25.00;4.97;;;;;;;-0.44;100.00;101783.22;5033933;28;20116;-60
2022/01/06 06:44:01;;;;;;;22.38;4.70;;;;;;;-0.48;99.97;101789.84;5041645;28;20037;-60
2022/01/06 06:46:26;;;;;;;17.60;4.65;;;;;;;-0.50;100.00;101794.53;5039169;28;20387;-60
2022/01/06 06:48:52;;;;;;;17.85;4.40;;;;;;;-0.56;100.00;101793.25;5047860;28;20029;-60
2022/01/06 06:51:17;;;;;;;14.45;4.90;;;;;;;-0.57;100.00;101802.31;5045775;28;20029;-60
2022/01/06 06:53:42;;;;;;;22.50;4.30;;;;;;;-0.57;100.00;101801.47;5044627;28;20801;-60
2022/01/06 06:56:08;;;;;;;17.85;4.45;;;;;;;-0.59;100.00;101804.31;5039420;28;20037;-60
2022/01/06 06:58:33;;;;;;;19.67;5.32;;;;;;;-0.59;100.00;101804.31;5046036;28;20040;-60
2022/01/06 07:00:59;;;;;;;20.77;5.05;;;;;;;-0.59;100.00;101812.38;5047129;28;20028;-60
2022/01/06 07:03:24;;;;;;;19.13;4.97;;;;;;;-0.62;100.00;101807.25;5045599;28;20045;-60
2022/01/06 07:05:49;;;;;;;16.80;3.95;;;;;;;-0.65;100.00;101812.94;5044673;28;20040;-60
2022/01/06 07:08:14;;;;;;;20.50;4.93;;;;;;;-0.68;100.00;101813.19;5045152;28;20049;-61
2022/01/06 07:10:40;;;;;;;19.08;4.93;;;;;;;-0.70;100.00;101817.03;5046505;28;20084;-61
2022/01/06 07:13:05;;;;;;;16.73;5.18;;;;;;;-0.73;100.00;101823.53;5044088;28;20029;-61
2022/01/06 07:15:32;;;;;;;17.77;6.13;;;;;;;-0.73;100.00;101823.53;5045659;28;20075;-60
2022/01/06 07:17:58;;;;;;;17.58;6.30;;;;;;;-0.74;100.00;101827.22;5045842;28;20111;-61
2022/01/06 07:20:23;;;;;;;15.50;5.55;;;;;;;-0.76;100.00;101831.03;5044269;28;20544;-61
2022/01/06 07:22:48;;;;;;;19.85;6.00;;;;;;;-0.77;99.84;101838.25;5045709;28;20037;-61
2022/01/06 07:25:14;;;;;;;20.40;5.97;;;;;;;-0.77;100.00;101840.09;5044835;28;20017;-61
2022/01/06 07:27:39;;;;;;;20.40;7.03;;;;;;;-0.79;100.00;101843.78;5044547;28;20036;-60
2022/01/06 07:30:05;;;;;;;17.92;6.60;;;;;;;-0.81;100.00;101853.03;5044797;28;20036;-60
2022/01/06 07:32:30;;;;;;;19.77;6.47;;;;;;;-0.83;100.00;101850.44;5044852;28;20039;-60
2022/01/06 07:34:56;;;;;;;26.00;8.75;;;;;;;-0.81;100.00;101848.47;5042260;28;20044;-60
2022/01/06 07:37:21;;;;;;;27.73;8.80;;;;;;;-0.80;100.00;101847.50;5045082;28;20082;-60
2022/01/06 07:39:46;;;;;;;21.02;9.30;;;;;;;-0.79;100.00;101862.69;5044620;28;20033;-60
2022/01/06 07:42:12;;;;;;;24.65;9.63;;;;;;;-0.78;100.00;101855.44;5043649;28;20391;-60
2022/01/06 07:44:37;;;;;;;18.23;9.55;;;;;;;-0.77;100.00;101849.06;5043267;28;20143;-60
2022/01/06 07:47:03;;;;;;;20.48;8.82;;;;;;;-0.75;100.00;101854.34;5042065;28;20067;-61
2022/01/06 07:49:29;;;;;;;24.25;9.63;;;;;;;-0.74;100.00;101856.03;5043863;28;20025;-61
2022/01/06 07:51:55;;;;;;;21.58;9.80;;;;;;;-0.74;100.00;101848.78;5043693;28;20078;-60
2022/01/06 07:54:21;;;;;;;19.25;8.43;;;;;;;-0.72;100.00;101845.97;5041033;28;20511;-60
2022/01/06 07:56:46;;;;;;;25.75;10.70;;;;;;;-0.71;100.00;101851.25;5037148;28;20443;-60
2022/01/06 07:59:12;;;;;;;27.85;11.25;;;;;;;-0.70;100.00;101852.94;5036211;28;20044;-60
2022/01/06 08:01:38;;;;;;;27.27;11.70;;;;;;;-0.68;100.00;101856.34;5043385;28;20356;-60
2022/01/06 08:04:03;;;;;;;27.50;12.13;;;;;;;-0.66;100.00;101854.41;5042843;28;20036;-61
2022/01/06 08:06:29;;;;;;;26.83;11.75;;;;;;;-0.64;100.00;101855.09;5041582;28;20028;-60
2022/01/06 08:08:54;;;;;;;26.90;14.48;;;;;;;-0.64;100.00;101854.25;5042752;28;20037;-60
2022/01/06 08:11:19;;;;;;;21.90;9.70;;;;;;;-0.59;100.00;101862.81;5042543;28;20373;-60
2022/01/06 08:13:44;;;;;;;28.52;12.77;;;;;;;-0.50;100.00;101866.56;5041619;28;20029;-60
2022/01/06 08:16:10;;;;;;;25.38;11.05;;;;;;;-0.41;100.00;101861.19;5036548;28;20388;-60
2022/01/06 08:18:35;;;;;;;26.00;11.75;;;;;;;-0.25;100.00;101860.72;5031454;28;20123;-60
2022/01/06 08:21:00;;;;;;;29.17;14.27;;;;;;;-0.14;99.80;101863.31;5039289;28;20030;-60
2022/01/06 08:23:26;;;;;;;28.75;14.40;;;;;;;-0.15;99.24;101866.13;5038220;28;20041;-60
2022/01/06 08:25:51;;;;;;;36.15;19.98;;;;;;;0.03;99.58;101869.91;5042857;28;20114;-60
2022/01/06 08:28:16;;;;;;;31.63;18.05;;;;;;;0.31;99.46;101868.28;5043674;28;20472;-60
2022/01/06 08:30:43;;;;;;;33.60;17.17;;;;;;;0.60;99.00;101867.47;5042999;28;20547;-60
2022/01/06 08:33:08;;;;;;;40.40;16.40;;;;;;;0.73;97.92;101865.34;5043155;28;20052;-60
2022/01/06 08:35:34;;;;;;;28.05;14.73;;;;;;;0.84;96.71;101865.19;5041837;28;20120;-61
2022/01/06 08:37:59;;;;;;;31.52;14.13;;;;;;;1.06;96.13;101865.91;5043668;28;20479;-61
2022/01/06 08:40:25;;;;;;;28.42;13.75;;;;;;;1.38;95.14;101868.28;5042674;28;20025;-60
2022/01/06 08:42:51;;;;;;;28.50;12.77;;;;;;;1.70;93.80;101867.91;5043014;28;20094;-60
2022/01/06 08:45:16;;;;;;;22.70;10.63;;;;;;;1.96;92.40;101878.91;5037696;28;20040;-60
2022/01/06 08:47:43;;;;;;;24.38;10.02;;;;;;;2.13;91.95;101870.03;5019918;28;20498;-60
2022/01/06 08:50:09;;;;;;;22.35;8.40;;;;;;;2.11;91.56;101877.44;5040977;28;20064;-60
2022/01/06 08:52:36;;;;;;;20.92;8.25;;;;;;;2.15;91.62;101880.69;5042292;28;20036;-60
2022/01/06 08:55:01;;;;;;;23.60;8.32;;;;;;;2.21;91.24;101882.81;5043186;28;20116;-62
2022/01/06 08:57:26;;;;;;;19.85;6.80;;;;;;;2.41;90.74;101875.41;5041908;28;20135;-61
2022/01/06 08:59:52;;;;;;;17.90;7.07;;;;;;;2.66;89.95;101881.97;5039228;28;20021;-60
2022/01/06 09:02:17;;;;;;;20.35;7.03;;;;;;;2.81;89.11;101875.84;5032640;28;20475;-60
2022/01/06 09:04:42;;;;;;;18.58;7.60;;;;;;;2.92;88.74;101887.47;5041776;28;20025;-60
2022/01/06 09:07:08;;;;;;;20.70;7.28;;;;;;;3.05;87.36;101890.66;5034624;28;20061;-60
2022/01/06 09:09:33;;;;;;;22.77;7.65;;;;;;;3.15;87.87;101898.72;5040538;28;20064;-61
2022/01/06 09:11:58;;;;;;;30.73;13.73;;;;;;;3.39;86.88;101901.59;5039365;28;20512;-61
2022/01/06 09:14:24;;;;;;;26.73;12.68;;;;;;;3.55;86.25;101893.59;5042310;28;20025;-60
2022/01/06 09:16:51;;;;;;;27.83;11.60;;;;;;;3.64;85.34;101898.06;5042390;28;20111;-60
2022/01/06 09:19:16;;;;;;;23.73;8.93;;;;;;;3.76;84.68;101898.66;5039337;28;20072;-60
2022/01/06 09:21:42;;;;;;;22.85;9.05;;;;;;;3.86;84.59;101896.69;5038242;28;20033;-60
2022/01/06 09:24:07;;;;;;;22.20;8.73;;;;;;;4.13;83.80;101901.06;5039961;28;20032;-60
2022/01/06 09:26:35;;;;;;;19.45;6.82;;;;;;;4.31;82.47;101902.81;5041952;28;20036;-61
2022/01/06 09:29:06;;;;;;;21.45;6.43;;;;;;;4.36;81.65;101904.06;5042361;28;20256;-60
2022/01/06 09:31:34;;;;;;;18.65;6.20;;;;;;;4.49;82.11;101911.75;5041572;28;20067;-63
2022/01/06 09:34:00;;;;;;;17.07;6.83;;;;;;;4.76;80.99;101915.22;5039286;28;20037;-60
2022/01/06 09:36:27;;;;;;;24.23;7.43;;;;;;;4.98;80.37;101911.03;5039683;28;20051;-61
2022/01/06 09:38:53;;;;;;;20.83;7.78;;;;;;;5.18;79.09;101917.84;5042446;28;20135;-61
2022/01/06 09:41:19;;;;;;;21.70;7.28;;;;;;;4.96;79.22;101922.06;5036987;28;20018;-60
2022/01/06 09:43:47;;;;;;;19.55;7.55;;;;;;;4.84;80.27;101926.13;5042287;28;20048;-60
2022/01/06 09:46:12;;;;;;;20.42;7.05;;;;;;;4.86;80.18;101924.09;5041648;28;20074;-60
2022/01/06 09:48:39;;;;;;;15.98;6.22;;;;;;;4.88;79.95;101925.63;5026690;28;20124;-61
2022/01/06 09:51:04;;;;;;;19.42;6.63;;;;;;;5.02;80.15;101923.25;5035710;28;20025;-61
2022/01/06 09:53:30;;;;;;;20.65;6.47;;;;;;;5.32;79.09;101927.22;5042411;28;20029;-60
2022/01/06 09:55:56;;;;;;;18.20;6.53;;;;;;;5.51;78.59;101928.75;5041864;28;20080;-60
2022/01/06 09:58:26;;;;;;;18.38;5.72;;;;;;;5.66;78.16;101927.88;5043617;28;20182;-60
2022/01/06 10:00:55;;;;;;;17.98;5.78;;;;;;;5.77;77.55;101929.41;5045933;28;20037;-60
2022/01/06 10:03:20;;;;;;;18.27;6.57;;;;;;;6.15;77.16;101919.63;5046087;28;20053;-60
2022/01/06 10:05:49;;;;;;;17.17;4.90;;;;;;;6.50;75.44;101917.47;5045100;28;20566;-61
2022/01/06 10:08:27;;;;;;;18.65;6.07;;;;;;;7.16;74.87;101916.03;5045946;28;20053;-61
2022/01/06 10:11:10;;;;;;;15.40;5.53;;;;;;;8.15;72.12;101915.94;5045367;28;20034;-60
2022/01/06 10:13:35;;;;;;;15.65;5.68;;;;;;;9.05;66.47;101908.28;5045609;28;20322;-60
2022/01/06 10:16:17;;;;;;;15.95;5.40;;;;;;;10.14;65.20;101906.03;5045519;28;20574;-60
2022/01/06 10:19:03;;;;;;;19.50;5.70;;;;;;;11.38;62.42;101902.25;5045727;28;20116;-60
2022/01/06 10:21:31;;;;;;;16.70;5.28;;;;;;;12.26;56.58;101896.47;5046356;28;20036;-60
2022/01/06 10:24:11;;;;;;;15.35;5.25;;;;;;;12.95;55.61;101896.59;5045680;28;20255;-60
2022/01/06 10:26:49;;;;;;;19.15;5.22;;;;;;;13.33;52.65;101898.53;5045111;28;20039;-60
2022/01/06 10:29:17;;;;;;;16.35;5.65;;;;;;;13.99;50.84;101902.63;5045416;28;20044;-60
2022/01/06 10:31:42;;;;;;;15.40;5.00;;;;;;;14.50;49.54;101894.00;5046006;28;20033;-60
2022/01/06 10:34:08;;;;;;;18.20;5.85;;;;;;;14.63;47.38;101898.50;5042233;28;20047;-61
2022/01/06 10:36:35;;;;;;;17.73;5.57;;;;;;;14.64;47.26;101891.91;5044708;28;20337;-61
2022/01/06 10:39:02;;;;;;;16.50;5.65;;;;;;;14.88;46.96;101886.50;5045704;28;20033;-61
2022/01/06 10:41:28;;;;;;;17.20;7.18;;;;;;;15.36;46.57;101891.09;5045595;28;20117;-60
2022/01/06 10:43:56;;;;;;;15.98;5.05;;;;;;;15.71;44.65;101891.19;5045711;28;20025;-60
2022/01/06 10:46:34;;;;;;;19.67;5.35;;;;;;;15.78;47.94;101898.31;5035473;28;20036;-60
2022/01/06 10:49:01;;;;;;;;;;;;;;;16.07;48.47;101898.44;5045780;28;20021;-61
2022/01/06 10:51:36;;;;;;;15.15;4.70;;;;;;;15.48;46.84;101895.59;5045281;28;19967;-61
2022/01/06 10:54:03;;;;;;;14.48;5.15;;;;;;;15.29;45.87;101896.75;5045388;28;20603;-63
2022/01/06 10:56:28;;;;;;;15.38;4.50;;;;;;;14.20;46.51;101896.66;5044367;28;20090;-60
2022/01/06 10:58:58;;;;;;;16.25;4.88;;;;;;;13.30;49.35;101901.72;5044740;28;20029;-60
2022/01/06 11:01:24;;;;;;;12.55;3.65;;;;;;;13.39;50.30;101896.78;5044630;28;20422;-60
2022/01/06 11:03:49;;;;;;;15.27;5.03;;;;;;;13.83;49.32;101898.50;5044667;28;20037;-61
2022/01/06 11:06:14;;;;;;;15.05;4.32;;;;;;;14.14;47.67;101882.91;5043722;28;20021;-61
2022/01/06 11:08:41;;;;;;;12.75;4.03;;;;;;;14.03;48.63;101888.09;5048115;28;20075;-61
2022/01/06 11:13:34;;;;;;;16.63;4.18;;;;;;;12.80;50.14;101890.53;5046230;28;20033;-61
2022/01/06 11:16:00;;;;;;;13.65;4.68;;;;;;;12.85;51.70;101882.44;5045237;28;20028;-61
2022/01/06 11:18:26;;;;;;;14.60;4.60;;;;;;;13.92;50.08;101880.56;5042783;28;20037;-61
2022/01/06 11:21:00;;;;;;;12.48;4.25;;;;;;;14.79;46.98;101880.44;5044519;28;20403;-61
2022/01/06 11:23:26;;;;;;;13.57;4.25;;;;;;;14.99;45.62;101878.22;5054133;28;20076;-61